Huvudsida
METAR-TAF:

METAR-TAF

Flygplatser :

Perugia, Italien

latitud: 43-05N, longitud: 012-30E, höjd: 208 m

Aktuellt väderrapport

Denna rapport gjordes för 14 minuter sedan, klockan 04:27 UTC
Vind 2 kt varierande vindriktning
Temperatur 6°C
Fuktighet 100%
Tryck 1021 hPa
Sikt: 5000 m
fuktdis

METAR: LIRZ 190427Z AUTO VRB02KT 5000 BR OVC023/// 06/06 Q1021

Tid: 05:41 (04:41 UTC)

Väderprognos

Denna rapport gjordes för 5 timmar och 41 minuter sedan, klockan 23:00 UTC
Prognos gäller från 19 kl. 00 UTC till 19 kl. 24 UTC
Vind 5 kt varierande vindriktning
Sikt: 7000 m
Spridda moln på en höjd av 5000 ft
Temporärt
från 19 kl. 10 UTC till 19 kl. 16 UTC
Sikt: 4000 m
regn

TAF: LIRZ 182300Z 1900/1924 VRB05KT 7000 SCT050 TEMPO 1910/1916 4000 RA

Aktuella väderrapporter och prognoser från 4000 flygplatser (METAR- och TAF-rapporter).

De tillgängliga stationerna syns som gula och röda prickar på kartan.

För musen över prickarna för att se namnen på stationerna.

Klicka sedan för att få väderrapporter och prognoser.

För att ändra kartan: Klicka på de gröna knapparna med ett svart kors på för att zooma in; den gröna knappen med ett streck på för att zooma ut; eller på de gröna pilarna för angränsande kartor.


METAR-TAF: